Time;durP1;ratioP1;P1;durP2;ratioP2;P2;SDS_P1;SDS_P2;PMS_P1;PMS_P2;Temp;Humidity;BMP_temperature;BMP_pressure;BME280_temperature;BME280_humidity;BME280_pressure;Samples;Min_cycle;Max_cycle;Signal;HPM_P1;HPM_P2
2023/03/13 00:01:54;;;;;;;24.83;13.18;;;4.60;99.90;;;;;;5113321;28;20035;-51
2023/03/13 00:04:21;;;;;;;28.27;13.93;;;4.60;99.90;;;;;;5103949;28;20393;-53
2023/03/13 00:06:48;;;;;;;31.98;13.98;;;4.60;99.90;;;;;;5113348;28;20047;-50
2023/03/13 00:09:15;;;;;;;23.17;12.93;;;4.60;99.90;;;;;;5101682;28;20047;-49
2023/03/13 00:11:44;;;;;;;27.25;13.52;;;4.60;99.90;;;;;;5106256;28;20028;-53
2023/03/13 00:14:11;;;;;;;27.80;12.82;;;4.60;99.90;;;;;;5108048;28;20039;-49
2023/03/13 00:16:38;;;;;;;26.75;12.90;;;4.70;99.90;;;;;;5105971;28;20085;-50
2023/03/13 00:19:07;;;;;;;26.42;13.02;;;4.70;99.90;;;;;;5101065;28;20051;-50
2023/03/13 00:21:36;;;;;;;22.90;13.10;;;4.70;99.90;;;;;;5109060;28;20492;-50
2023/03/13 00:24:03;;;;;;;24.63;12.63;;;4.70;99.90;;;;;;5092748;28;20404;-51
2023/03/13 00:26:30;;;;;;;18.45;10.30;;;4.70;99.90;;;;;;5113063;28;20048;-49
2023/03/13 00:28:57;;;;;;;12.45;6.75;;;4.70;99.90;;;;;;5094037;28;20500;-53
2023/03/13 00:31:29;;;;;;;14.70;7.93;;;4.60;99.90;;;;;;5108842;28;20039;-50
2023/03/13 00:34:00;;;;;;;16.98;9.05;;;4.60;99.90;;;;;;5095945;28;20042;-50
2023/03/13 00:36:30;;;;;;;18.35;9.95;;;4.60;99.90;;;;;;5093003;28;20044;-51
2023/03/13 00:38:57;;;;;;;18.73;8.73;;;4.70;99.90;;;;;;5092709;28;20455;-49
2023/03/13 00:41:29;;;;;;;23.25;10.85;;;4.60;99.90;;;;;;5104732;28;20044;-50
2023/03/13 00:43:57;;;;;;;17.75;9.93;;;4.60;99.90;;;;;;5074352;28;20046;-50
2023/03/13 00:46:26;;;;;;;20.95;9.88;;;4.60;99.90;;;;;;5074404;28;20048;-51
2023/03/13 00:48:53;;;;;;;21.17;9.23;;;4.60;99.90;;;;;;5074287;28;20043;-50
2023/03/13 00:51:22;;;;;;;19.55;10.27;;;4.60;99.90;;;;;;5093347;28;20066;-53
2023/03/13 00:53:49;;;;;;;19.27;9.45;;;4.60;99.90;;;;;;5074646;28;20097;-50
2023/03/13 00:56:18;;;;;;;20.15;9.93;;;4.60;99.90;;;;;;5092410;28;20048;-49
2023/03/13 00:58:46;;;;;;;22.35;11.80;;;4.60;99.90;;;;;;5093344;28;20036;-50
2023/03/13 01:01:19;;;;;;;21.67;10.65;;;4.60;99.90;;;;;;5092573;28;20048;-52
2023/03/13 01:03:51;;;;;;;19.80;10.45;;;4.60;99.90;;;;;;5092435;28;20447;-54
2023/03/13 01:06:20;;;;;;;21.17;10.65;;;4.50;99.90;;;;;;5091866;28;20040;-49
2023/03/13 01:08:48;;;;;;;22.75;10.88;;;4.50;99.90;;;;;;5088223;28;20096;-51
2023/03/13 01:11:16;;;;;;;;;;;4.60;99.90;;;;;;5111511;28;20044;-51
2023/03/13 01:13:44;;;;;;;24.75;13.00;;;4.60;99.90;;;;;;5110672;28;19919;-50
2023/03/13 01:16:20;;;;;;;;;;;4.60;99.90;;;;;;5113140;28;20176;-53
2023/03/13 01:18:49;;;;;;;26.20;11.40;;;4.60;99.90;;;;;;5126971;27;19951;-50
2023/03/13 01:21:18;;;;;;;31.27;15.45;;;4.50;99.90;;;;;;5114515;27;20050;-50
2023/03/13 01:23:47;;;;;;;34.65;16.00;;;4.50;99.90;;;;;;5091762;28;20040;-50
2023/03/13 01:26:15;;;;;;;37.63;17.30;;;4.50;99.90;;;;;;5111374;28;20047;-50
2023/03/13 01:28:42;;;;;;;39.83;17.98;;;4.50;99.90;;;;;;5108931;28;20036;-51
2023/03/13 01:31:20;;;;;;;44.35;18.63;;;4.40;99.90;;;;;;5108090;28;20377;-52
2023/03/13 01:33:50;;;;;;;39.42;16.45;;;4.40;99.90;;;;;;5073450;28;20044;-53
2023/03/13 01:36:17;;;;;;;38.75;16.92;;;4.40;99.90;;;;;;5111649;28;20032;-52
2023/03/13 01:38:48;;;;;;;42.35;17.85;;;4.40;99.90;;;;;;5111402;28;20051;-50
2023/03/13 01:41:16;;;;;;;43.05;19.70;;;4.40;99.90;;;;;;5095595;27;20051;-51
2023/03/13 01:43:44;;;;;;;43.35;18.67;;;4.30;99.90;;;;;;5114291;27;20046;-50
2023/03/13 01:46:20;;;;;;;33.28;16.05;;;4.30;99.90;;;;;;5113620;27;20055;-51
2023/03/13 01:49:18;;;;;;;37.63;16.85;;;4.30;99.90;;;;;;5113747;27;20054;-50
2023/03/13 01:52:06;;;;;;;35.40;16.57;;;4.20;99.90;;;;;;5091955;28;20048;-51
2023/03/13 01:54:46;;;;;;;38.80;16.58;;;4.20;99.90;;;;;;5073287;28;20052;-51
2023/03/13 01:57:27;;;;;;;36.05;16.80;;;4.20;99.90;;;;;;5073470;28;20047;-51
2023/03/13 02:00:11;;;;;;;33.50;15.93;;;4.20;99.90;;;;;;5083285;28;20450;-51
2023/03/13 02:02:48;;;;;;;32.03;15.95;;;4.20;99.90;;;;;;5093441;28;20059;-50
2023/03/13 02:05:17;;;;;;;33.38;16.73;;;4.20;99.90;;;;;;5088998;28;20089;-53
2023/03/13 02:08:04;;;;;;;36.25;16.67;;;4.20;99.90;;;;;;5073144;28;20436;-53
2023/03/13 02:10:37;;;;;;;35.50;17.15;;;4.10;99.90;;;;;;5090693;28;20036;-54
2023/03/13 02:13:04;;;;;;;32.17;15.80;;;4.10;99.90;;;;;;5074383;28;20500;-52
2023/03/13 02:15:31;;;;;;;32.17;16.13;;;4.10;99.90;;;;;;5086787;28;20096;-51
2023/03/13 02:17:59;;;;;;;32.50;15.55;;;4.00;99.90;;;;;;5109987;28;20396;-51
2023/03/13 02:20:26;;;;;;;38.10;17.63;;;3.90;99.90;;;;;;5111168;28;20100;-51
2023/03/13 02:22:57;;;;;;;33.92;16.08;;;3.90;99.90;;;;;;5110954;28;20086;-50
2023/03/13 02:25:24;;;;;;;30.98;14.40;;;3.90;99.90;;;;;;5084685;28;20050;-50
2023/03/13 02:28:03;;;;;;;29.95;14.60;;;3.90;99.90;;;;;;5093486;28;20492;-52
2023/03/13 02:30:33;;;;;;;31.55;14.13;;;3.90;99.90;;;;;;5093183;28;20122;-53
2023/03/13 02:33:02;;;;;;;23.58;12.43;;;3.90;99.90;;;;;;5090000;28;20097;-51
2023/03/13 02:35:30;;;;;;;28.63;13.85;;;3.90;99.90;;;;;;5111588;28;20069;-53
2023/03/13 02:38:08;;;;;;;29.15;13.57;;;3.90;99.90;;;;;;5091889;28;20040;-50
2023/03/13 02:40:39;;;;;;;27.00;13.27;;;4.00;99.90;;;;;;5092756;28;20055;-53
2023/03/13 02:43:19;;;;;;;27.77;12.57;;;4.00;99.90;;;;;;5092725;28;20043;-53
2023/03/13 02:46:09;;;;;;;28.90;13.18;;;4.00;99.90;;;;;;5091046;28;20061;-52
2023/03/13 02:48:52;;;;;;;27.63;11.23;;;4.00;99.90;;;;;;5092835;28;20032;-49
2023/03/13 02:51:35;;;;;;;30.75;14.38;;;4.00;99.90;;;;;;5087730;28;20458;-52
2023/03/13 02:54:10;;;;;;;23.67;11.68;;;4.00;99.90;;;;;;5073021;28;20044;-50
2023/03/13 02:56:38;;;;;;;31.00;13.73;;;3.90;99.90;;;;;;5072187;28;20040;-51
2023/03/13 02:59:07;;;;;;;30.67;13.10;;;4.00;99.90;;;;;;5073134;28;20558;-54
2023/03/13 03:01:37;;;;;;;25.17;12.75;;;4.00;99.90;;;;;;5089055;28;20047;-55
2023/03/13 03:04:04;;;;;;;27.00;13.73;;;4.00;99.90;;;;;;5074619;28;20052;-51
2023/03/13 03:06:31;;;;;;;28.05;13.07;;;3.90;99.90;;;;;;5089612;28;20047;-50
2023/03/13 03:09:01;;;;;;;27.85;12.38;;;3.90;99.90;;;;;;5101546;28;20048;-50
2023/03/13 03:11:30;;;;;;;25.20;12.80;;;3.90;99.90;;;;;;5092790;28;20040;-51
2023/03/13 03:14:01;;;;;;;27.17;12.88;;;4.00;99.90;;;;;;5092876;28;20052;-50
2023/03/13 03:16:34;;;;;;;26.80;13.48;;;4.00;99.90;;;;;;5093231;28;20047;-51
2023/03/13 03:19:05;;;;;;;25.48;12.38;;;4.00;99.90;;;;;;5083084;28;20572;-51
2023/03/13 03:21:33;;;;;;;26.38;11.93;;;4.00;99.90;;;;;;5079069;28;20627;-50
2023/03/13 03:24:00;;;;;;;22.83;12.95;;;4.00;99.90;;;;;;5072414;28;20052;-51
2023/03/13 03:26:27;;;;;;;;;;;4.00;99.90;;;;;;5089982;28;20059;-53
2023/03/13 03:28:54;;;;;;;22.13;10.80;;;4.30;99.90;;;;;;5092433;27;20002;-52
2023/03/13 03:31:22;;;;;;;22.08;11.25;;;4.10;99.90;;;;;;5116901;27;20031;-50
2023/03/13 03:33:49;;;;;;;19.40;9.82;;;4.10;99.90;;;;;;5116932;27;20043;-52
2023/03/13 03:36:20;;;;;;;17.48;9.85;;;4.00;99.90;;;;;;5107621;28;20050;-50
2023/03/13 03:38:47;;;;;;;18.95;10.52;;;4.00;99.90;;;;;;5079672;28;20519;-52
2023/03/13 03:41:18;;;;;;;21.50;11.00;;;4.10;99.90;;;;;;5077321;28;20041;-54
2023/03/13 03:43:46;;;;;;;22.23;10.55;;;4.00;99.90;;;;;;5088640;28;20495;-50
2023/03/13 03:46:16;;;;;;;22.23;9.88;;;4.00;99.90;;;;;;5075001;28;20123;-53
2023/03/13 03:48:43;;;;;;;21.80;10.60;;;4.00;99.90;;;;;;5075428;28;20047;-50
2023/03/13 03:51:11;;;;;;;21.15;10.57;;;4.00;99.90;;;;;;5080561;28;20059;-51
2023/03/13 03:53:40;;;;;;;25.20;11.25;;;4.00;99.90;;;;;;5090838;28;20036;-52
2023/03/13 03:56:07;;;;;;;21.25;11.45;;;4.00;99.90;;;;;;5113032;28;20545;-51
2023/03/13 03:58:37;;;;;;;22.67;10.63;;;4.00;99.90;;;;;;5111638;28;20043;-50
2023/03/13 04:02:12;;;;;;;21.10;10.57;;;4.00;99.90;;;;;;5121966;22;20050;-50
2023/03/13 04:05:18;;;;;;;25.27;12.00;;;3.90;99.90;;;;;;5084864;28;20512;-49
2023/03/13 04:07:59;;;;;;;22.98;10.73;;;4.00;99.90;;;;;;5073321;28;20126;-48
2023/03/13 04:10:26;;;;;;;22.98;11.30;;;4.00;99.90;;;;;;5091576;28;20045;-49
2023/03/13 04:12:53;;;;;;;24.10;11.90;;;4.00;99.90;;;;;;5074954;28;20501;-47
2023/03/13 04:15:20;;;;;;;23.50;11.05;;;4.00;99.90;;;;;;5074882;28;20055;-48
2023/03/13 04:17:47;;;;;;;19.20;10.65;;;4.00;99.90;;;;;;5073509;28;20036;-48
2023/03/13 04:20:15;;;;;;;25.10;12.35;;;4.10;99.90;;;;;;5074036;28;20470;-48
2023/03/13 04:22:42;;;;;;;21.15;11.20;;;4.10;99.90;;;;;;5074319;28;20669;-48
2023/03/13 04:25:10;;;;;;;21.88;10.35;;;4.10;99.90;;;;;;5074624;28;20382;-47
2023/03/13 04:27:37;;;;;;;19.48;10.73;;;4.10;99.90;;;;;;5072437;28;20151;-48
2023/03/13 04:30:05;;;;;;;19.23;10.80;;;4.00;99.90;;;;;;5073199;28;20051;-48
2023/03/13 04:32:42;;;;;;;19.90;10.38;;;4.00;99.90;;;;;;5092852;28;20056;-49
2023/03/13 04:35:24;;;;;;;21.60;10.48;;;4.00;99.90;;;;;;5071367;28;20048;-48
2023/03/13 04:38:12;;;;;;;21.55;11.23;;;4.10;99.90;;;;;;5073777;28;20085;-48
2023/03/13 04:40:46;;;;;;;22.35;10.80;;;4.10;99.90;;;;;;5090714;28;20440;-48
2023/03/13 04:43:41;;;;;;;21.02;9.60;;;4.10;99.90;;;;;;5063449;28;20054;-48
2023/03/13 04:46:17;;;;;;;17.42;8.95;;;4.10;99.90;;;;;;5095740;28;20066;-50
2023/03/13 04:49:07;;;;;;;19.63;9.68;;;4.10;99.90;;;;;;5081871;28;20673;-49
2023/03/13 04:51:53;;;;;;;19.75;9.93;;;4.10;99.90;;;;;;5087289;28;20451;-48
2023/03/13 04:54:29;;;;;;;21.65;10.93;;;4.00;99.90;;;;;;5074829;28;20036;-47
2023/03/13 04:57:09;;;;;;;19.58;10.20;;;4.10;99.90;;;;;;5093507;28;20048;-47
2023/03/13 04:59:41;;;;;;;21.27;10.00;;;4.10;99.90;;;;;;5085826;28;20093;-47
2023/03/13 05:02:22;;;;;;;18.25;9.07;;;4.10;99.90;;;;;;5075817;28;20048;-48
2023/03/13 05:05:21;;;;;;;15.95;8.85;;;4.00;99.90;;;;;;5046873;28;20055;-47
2023/03/13 05:08:23;;;;;;;16.30;8.52;;;4.00;99.90;;;;;;5059859;28;20055;-48
2023/03/13 05:11:10;;;;;;;27.90;12.00;;;3.90;99.90;;;;;;5086974;28;20048;-48
2023/03/13 05:13:55;;;;;;;20.33;9.90;;;4.00;99.90;;;;;;5091525;28;20054;-51
2023/03/13 05:16:32;;;;;;;18.20;9.10;;;4.00;99.90;;;;;;5090214;28;20040;-50
2023/03/13 05:19:12;;;;;;;21.85;11.68;;;4.00;99.90;;;;;;5070215;28;20140;-50
2023/03/13 05:22:05;;;;;;;21.17;11.02;;;4.00;99.90;;;;;;5060153;28;20055;-48
2023/03/13 05:24:52;;;;;;;21.67;11.45;;;4.10;99.90;;;;;;5048414;28;20092;-48
2023/03/13 05:27:37;;;;;;;19.92;10.15;;;4.00;99.90;;;;;;5082525;28;20059;-47
2023/03/13 05:30:13;;;;;;;16.33;8.48;;;4.00;99.90;;;;;;5072801;28;20570;-49
2023/03/13 05:32:55;;;;;;;20.63;9.82;;;4.00;99.90;;;;;;5069374;28;20102;-47
2023/03/13 05:35:39;;;;;;;22.25;9.40;;;4.00;99.90;;;;;;5075542;28;20048;-48
2023/03/13 05:38:24;;;;;;;23.02;10.60;;;4.00;99.90;;;;;;5075762;28;20051;-48
2023/03/13 05:41:05;;;;;;;17.63;9.52;;;4.00;99.90;;;;;;5058899;28;20109;-48
2023/03/13 05:43:48;;;;;;;21.13;9.68;;;4.10;99.90;;;;;;5074558;28;20040;-48
2023/03/13 05:46:38;;;;;;;19.17;9.80;;;4.10;99.90;;;;;;5042622;28;20060;-49
2023/03/13 05:49:23;;;;;;;18.40;9.98;;;4.00;99.90;;;;;;5098800;28;20059;-47
2023/03/13 05:52:03;;;;;;;21.58;11.15;;;4.10;99.90;;;;;;5100213;28;20067;-48
2023/03/13 05:54:54;;;;;;;17.77;9.75;;;4.00;99.90;;;;;;5089928;28;20096;-47
2023/03/13 05:57:30;;;;;;;22.35;10.73;;;4.00;99.90;;;;;;5072821;28;20042;-49
2023/03/13 06:00:17;;;;;;;18.90;9.95;;;4.00;99.90;;;;;;5087813;28;20055;-47
2023/03/13 06:03:05;;;;;;;19.92;9.93;;;4.00;99.90;;;;;;5071386;28;20055;-48
2023/03/13 06:05:40;;;;;;;20.60;10.00;;;4.00;99.90;;;;;;5057281;28;20055;-47
2023/03/13 06:08:18;;;;;;;19.83;9.82;;;4.00;99.90;;;;;;5069571;28;20455;-48
2023/03/13 06:10:48;;;;;;;18.13;9.55;;;4.10;99.90;;;;;;5081210;28;20189;-48
2023/03/13 06:13:14;;;;;;;18.48;9.68;;;4.10;99.90;;;;;;5072796;28;20109;-48
2023/03/13 06:15:56;;;;;;;15.90;9.25;;;4.10;99.90;;;;;;5072789;28;20039;-47
2023/03/13 06:18:54;;;;;;;19.00;9.85;;;4.10;99.90;;;;;;5063227;28;20071;-47
2023/03/13 06:21:21;;;;;;;17.92;9.63;;;4.20;99.90;;;;;;5072053;28;20085;-48
2023/03/13 06:23:48;;;;;;;16.38;8.93;;;4.10;99.90;;;;;;5091097;28;20043;-48
2023/03/13 06:26:15;;;;;;;16.83;8.77;;;4.20;99.90;;;;;;5088164;28;20070;-48
2023/03/13 06:28:41;;;;;;;16.45;9.25;;;4.20;99.90;;;;;;5081950;28;20040;-47
2023/03/13 06:31:09;;;;;;;20.73;10.27;;;4.20;99.90;;;;;;5090805;28;20113;-48
2023/03/13 06:33:36;;;;;;;20.40;10.10;;;4.20;99.90;;;;;;5085995;28;20050;-48
2023/03/13 06:36:03;;;;;;;16.55;8.82;;;4.20;99.90;;;;;;5091148;28;20098;-47
2023/03/13 06:38:30;;;;;;;16.33;9.25;;;4.20;99.90;;;;;;5089903;28;20047;-48
2023/03/13 06:40:57;;;;;;;17.58;8.18;;;4.20;99.90;;;;;;5091299;28;20440;-48
2023/03/13 06:43:24;;;;;;;18.02;9.10;;;4.20;99.90;;;;;;5083667;28;20395;-50
2023/03/13 06:45:51;;;;;;;18.83;9.52;;;4.20;99.90;;;;;;5090978;28;20491;-51
2023/03/13 06:48:17;;;;;;;15.20;7.75;;;4.30;99.90;;;;;;5090745;28;20075;-47
2023/03/13 06:50:44;;;;;;;10.77;5.65;;;4.30;99.90;;;;;;5082195;28;20558;-47
2023/03/13 06:53:17;;;;;;;15.48;7.53;;;4.30;99.90;;;;;;5089841;28;20086;-47
2023/03/13 06:55:43;;;;;;;15.52;7.80;;;4.30;99.90;;;;;;5090849;28;20410;-47
2023/03/13 06:58:10;;;;;;;18.83;9.02;;;4.40;99.90;;;;;;5091053;28;20571;-47
2023/03/13 07:00:54;;;;;;;17.70;8.50;;;4.40;99.90;;;;;;5083731;28;20520;-50
2023/03/13 07:03:21;;;;;;;21.08;8.38;;;4.50;99.90;;;;;;5091116;28;20508;-50
2023/03/13 07:05:48;;;;;;;17.13;8.43;;;4.50;99.90;;;;;;5089555;28;20044;-49
2023/03/13 07:08:14;;;;;;;18.27;8.45;;;4.50;99.90;;;;;;5094644;28;20101;-49
2023/03/13 07:10:42;;;;;;;20.35;9.73;;;4.50;99.90;;;;;;5093819;28;20469;-49
2023/03/13 07:13:08;;;;;;;;;;;4.50;99.90;;;;;;5095522;28;20090;-47
2023/03/13 07:15:35;;;;;;;17.20;9.52;;;4.60;99.90;;;;;;5089829;28;20319;-47
2023/03/13 07:18:02;;;;;;;21.33;9.70;;;4.60;99.90;;;;;;5094736;28;20101;-47
2023/03/13 07:20:28;;;;;;;22.13;11.05;;;4.60;99.90;;;;;;5094354;28;20048;-47
2023/03/13 07:22:55;;;;;;;21.67;9.55;;;4.60;99.90;;;;;;5088743;28;20689;-47
2023/03/13 07:25:22;;;;;;;19.10;10.10;;;4.60;99.90;;;;;;5093416;28;20381;-47
2023/03/13 07:27:51;;;;;;;20.98;10.05;;;4.70;99.90;;;;;;5093273;28;20036;-47
2023/03/13 07:30:19;;;;;;;19.33;9.73;;;4.60;99.90;;;;;;5094084;28;20093;-48
2023/03/13 07:32:45;;;;;;;13.75;7.57;;;4.70;99.90;;;;;;5086998;28;20032;-47
2023/03/13 07:35:12;;;;;;;14.38;7.25;;;4.70;99.90;;;;;;5094095;28;20067;-47
2023/03/13 07:37:39;;;;;;;17.92;8.13;;;4.70;99.90;;;;;;5090172;28;20077;-48
2023/03/13 07:40:08;;;;;;;22.75;11.25;;;4.80;99.90;;;;;;5093643;28;20521;-49
2023/03/13 07:42:34;;;;;;;17.73;8.70;;;4.80;99.90;;;;;;5093545;28;20097;-47
2023/03/13 07:45:01;;;;;;;17.05;9.10;;;4.80;99.90;;;;;;5094096;28;20109;-47
2023/03/13 07:47:28;;;;;;;21.50;10.40;;;4.80;99.90;;;;;;5092942;28;20508;-48
2023/03/13 07:49:55;;;;;;;20.08;9.52;;;4.80;99.90;;;;;;5093706;28;20071;-48
2023/03/13 07:52:21;;;;;;;17.90;9.65;;;4.80;99.90;;;;;;5093890;28;20047;-47
2023/03/13 07:54:48;;;;;;;21.60;10.57;;;4.90;99.90;;;;;;5092216;28;20050;-48
2023/03/13 07:57:15;;;;;;;19.83;8.75;;;4.90;99.90;;;;;;5093848;28;20108;-47
2023/03/13 07:59:42;;;;;;;15.75;8.73;;;5.00;99.90;;;;;;5093034;28;20048;-48
2023/03/13 08:02:12;;;;;;;14.18;8.15;;;5.10;99.90;;;;;;5093801;28;20102;-49
2023/03/13 08:04:39;;;;;;;16.67;8.70;;;5.20;99.90;;;;;;5071707;28;20040;-48
2023/03/13 08:07:10;;;;;;;18.08;9.90;;;5.20;99.90;;;;;;5093669;28;20036;-48
2023/03/13 08:09:37;;;;;;;16.08;9.10;;;5.30;99.90;;;;;;5084151;28;20036;-48
2023/03/13 08:12:04;;;;;;;19.38;9.32;;;5.30;99.90;;;;;;5091628;28;20044;-48
2023/03/13 08:14:30;;;;;;;18.13;9.93;;;5.30;99.90;;;;;;5092874;28;20044;-48
2023/03/13 08:16:57;;;;;;;18.23;9.82;;;5.40;99.90;;;;;;5091171;28;20048;-47
2023/03/13 08:19:24;;;;;;;18.75;8.50;;;5.40;99.90;;;;;;5092700;28;20055;-47
2023/03/13 08:21:51;;;;;;;15.32;8.45;;;5.50;99.90;;;;;;5093189;28;20094;-48
2023/03/13 08:24:18;;;;;;;17.45;8.82;;;5.60;99.90;;;;;;5093511;28;20575;-48
2023/03/13 08:26:44;;;;;;;18.88;9.35;;;5.50;99.90;;;;;;5086780;28;20102;-47
2023/03/13 08:29:13;;;;;;;22.25;10.40;;;5.50;99.90;;;;;;5089846;28;20040;-47
2023/03/13 08:31:44;;;;;;;19.83;9.50;;;5.50;99.90;;;;;;5090603;28;20638;-49
2023/03/13 08:34:12;;;;;;;19.13;10.07;;;5.40;99.90;;;;;;5092276;28;20471;-47
2023/03/13 08:36:39;;;;;;;17.38;9.73;;;5.40;99.90;;;;;;5092668;28;20040;-49
2023/03/13 08:39:10;;;;;;;16.67;9.68;;;5.50;99.90;;;;;;5072242;28;20053;-48
2023/03/13 08:41:39;;;;;;;18.98;9.68;;;5.60;99.90;;;;;;5092885;28;20073;-50
2023/03/13 08:44:07;;;;;;;18.17;9.52;;;5.70;99.90;;;;;;5090566;28;20515;-47
2023/03/13 08:46:35;;;;;;;18.73;9.63;;;5.80;99.90;;;;;;5087229;28;20423;-48
2023/03/13 08:49:03;;;;;;;16.38;9.70;;;5.90;99.90;;;;;;5091888;28;20043;-49
2023/03/13 08:51:30;;;;;;;18.92;8.70;;;5.90;99.90;;;;;;5092820;28;20044;-49
2023/03/13 08:53:57;;;;;;;13.45;7.40;;;6.00;99.90;;;;;;5077147;28;20063;-48
2023/03/13 08:56:26;;;;;;;13.45;7.68;;;6.10;99.90;;;;;;5087225;28;20066;-47
2023/03/13 08:58:55;;;;;;;13.80;8.18;;;6.10;99.90;;;;;;5107858;28;20032;-48
2023/03/13 09:01:24;;;;;;;19.77;9.60;;;6.10;99.90;;;;;;5088365;28;20040;-47
2023/03/13 09:03:52;;;;;;;20.67;10.40;;;6.20;99.90;;;;;;5092693;28;20036;-48
2023/03/13 09:06:19;;;;;;;20.15;9.98;;;6.20;99.90;;;;;;5092596;28;20115;-47
2023/03/13 09:08:45;;;;;;;14.68;8.07;;;6.30;99.90;;;;;;5090527;28;20442;-49
2023/03/13 09:11:15;;;;;;;15.88;8.48;;;6.40;99.90;;;;;;5092485;28;20040;-47
2023/03/13 09:13:45;;;;;;;14.20;8.10;;;6.40;99.90;;;;;;5092559;28;20492;-50
2023/03/13 09:16:18;;;;;;;12.32;6.95;;;6.50;99.90;;;;;;5090941;28;20431;-47
2023/03/13 09:18:45;;;;;;;13.05;7.05;;;6.50;99.90;;;;;;5091406;28;20056;-47
2023/03/13 09:21:14;;;;;;;;;;;6.40;99.90;;;;;;5092214;28;20059;-49
2023/03/13 09:23:40;;;;;;;;;;;6.40;99.90;;;;;;5085182;28;19924;-49
2023/03/13 09:26:08;;;;;;;11.48;5.82;;;6.30;99.90;;;;;;5091049;28;19966;-48
2023/03/13 09:28:35;;;;;;;;;;;6.30;99.90;;;;;;5091757;28;20082;-50
2023/03/13 09:31:13;;;;;;;11.10;5.93;;;6.20;99.90;;;;;;5092517;28;19998;-47
2023/03/13 09:33:41;;;;;;;12.57;6.40;;;6.30;99.90;;;;;;5086840;28;20043;-48
2023/03/13 09:36:09;;;;;;;11.98;6.78;;;6.40;99.90;;;;;;5091883;28;20032;-48
2023/03/13 09:38:37;;;;;;;12.30;6.68;;;6.50;99.90;;;;;;5091679;28;20122;-48
2023/03/13 09:41:18;;;;;;;10.45;6.35;;;6.50;99.90;;;;;;5082948;28;20494;-51
2023/03/13 09:44:18;;;;;;;12.80;7.03;;;6.40;99.90;;;;;;5091939;28;20048;-49
2023/03/13 09:47:04;;;;;;;12.23;6.53;;;6.40;99.90;;;;;;5092185;28;20497;-49
2023/03/13 09:49:39;;;;;;;12.50;7.03;;;6.50;99.90;;;;;;5086596;28;20090;-48
2023/03/13 09:52:23;;;;;;;14.80;7.90;;;6.50;99.90;;;;;;5090243;28;20040;-47
2023/03/13 09:54:55;;;;;;;16.70;8.93;;;6.60;99.90;;;;;;5073225;28;20040;-48
2023/03/13 09:57:42;;;;;;;15.15;7.25;;;6.60;99.90;;;;;;5091745;28;20079;-48
2023/03/13 10:00:17;;;;;;;13.88;7.30;;;6.70;99.90;;;;;;5090429;28;20113;-48
2023/03/13 10:02:56;;;;;;;12.73;6.78;;;6.90;99.90;;;;;;5133823;22;20047;-51
2023/03/13 10:05:23;;;;;;;11.75;6.70;;;7.00;99.90;;;;;;5116590;27;20071;-50
2023/03/13 10:08:00;;;;;;;16.05;7.68;;;7.30;99.90;;;;;;5111291;28;20557;-52
2023/03/13 10:10:42;;;;;;;12.30;7.25;;;7.40;99.90;;;;;;5111868;28;20085;-52
2023/03/13 10:13:23;;;;;;;11.82;6.43;;;7.60;99.90;;;;;;5094262;28;20480;-51
2023/03/13 10:15:55;;;;;;;14.25;6.72;;;7.80;99.90;;;;;;5103752;28;20040;-50
2023/03/13 10:18:23;;;;;;;15.65;8.00;;;7.80;99.90;;;;;;5089737;28;20427;-53
2023/03/13 10:20:53;;;;;;;13.73;7.80;;;7.80;99.90;;;;;;5091321;28;20055;-50
2023/03/13 10:24:11;;;;;;;14.38;7.78;;;7.70;99.90;;;;;;5115735;27;20111;-51
2023/03/13 10:26:38;;;;;;;16.05;7.78;;;7.70;99.90;;;;;;5103496;27;20464;-53
2023/03/13 10:29:21;;;;;;;11.20;6.57;;;7.70;99.90;;;;;;5119695;28;20039;-51
2023/03/13 10:32:07;;;;;;;11.60;6.70;;;7.90;99.90;;;;;;5114836;28;20093;-53
2023/03/13 10:34:55;;;;;;;16.83;7.10;;;8.00;99.90;;;;;;5111817;28;20097;-51
2023/03/13 10:37:27;;;;;;;11.32;6.53;;;8.20;99.90;;;;;;5116072;28;20072;-50
2023/03/13 10:40:12;;;;;;;12.18;7.13;;;8.30;99.90;;;;;;5134263;27;20047;-50
2023/03/13 10:42:44;;;;;;;10.82;6.32;;;8.40;99.90;;;;;;5136197;27;20689;-53
2023/03/13 10:45:17;;;;;;;16.40;6.07;;;8.60;99.90;;;;;;5132549;27;20071;-53
2023/03/13 10:47:44;;;;;;;8.77;5.32;;;8.70;99.90;;;;;;5136471;27;20489;-51
2023/03/13 10:50:22;;;;;;;10.05;4.80;;;8.70;99.90;;;;;;5135678;27;20127;-54
2023/03/13 10:52:50;;;;;;;8.40;4.43;;;8.70;99.90;;;;;;5136371;27;20078;-52
2023/03/13 10:55:22;;;;;;;6.47;4.03;;;9.00;99.90;;;;;;5132737;27;20066;-51
2023/03/13 10:57:59;;;;;;;7.05;4.22;;;9.00;99.90;;;;;;5136228;27;20035;-51
2023/03/13 11:00:32;;;;;;;6.07;3.15;;;9.20;99.90;;;;;;5112396;27;20043;-50
2023/03/13 11:02:59;;;;;;;8.25;3.65;;;9.40;99.90;;;;;;5115185;28;20044;-53
2023/03/13 11:05:30;;;;;;;;;;;9.60;99.90;;;;;;5115028;28;20093;-50
2023/03/13 11:08:06;;;;;;;5.80;2.85;;;9.80;99.90;;;;;;5114235;28;19927;-54
2023/03/13 11:10:35;;;;;;;7.00;2.50;;;9.90;99.90;;;;;;5115163;28;20032;-51
2023/03/13 11:13:02;;;;;;;6.32;2.65;;;10.30;99.90;;;;;;5114711;28;20039;-50
2023/03/13 11:15:40;;;;;;;4.97;2.78;;;10.40;99.90;;;;;;5115411;28;20044;-53
2023/03/13 11:18:42;;;;;;;5.07;2.90;;;10.40;99.90;;;;;;5123351;27;20035;-52
2023/03/13 11:21:19;;;;;;;3.72;2.47;;;10.60;99.90;;;;;;5117816;27;20070;-51
2023/03/13 11:24:00;;;;;;;6.03;2.17;;;10.70;99.90;;;;;;5135516;27;20078;-51
2023/03/13 11:26:35;;;;;;;3.33;2.28;;;10.80;99.90;;;;;;5131889;27;20043;-53
2023/03/13 11:29:23;;;;;;;6.95;3.33;;;10.60;99.90;;;;;;5135311;27;20103;-53
2023/03/13 11:31:57;;;;;;;4.93;2.95;;;10.70;99.90;;;;;;5125172;27;20035;-50
2023/03/13 11:34:33;;;;;;;6.25;2.45;;;10.90;99.90;;;;;;5116085;27;20515;-50
2023/03/13 11:37:12;;;;;;;4.65;2.80;;;10.90;99.90;;;;;;5113908;28;20562;-50
2023/03/13 11:40:21;;;;;;;4.28;2.60;;;11.10;99.90;;;;;;5114561;28;20102;-51
2023/03/13 11:43:20;;;;;;;4.05;2.60;;;11.30;99.90;;;;;;5126536;27;20031;-51
2023/03/13 11:45:54;;;;;;;5.72;2.50;;;11.70;99.90;;;;;;5094122;28;20044;-51
2023/03/13 11:48:52;;;;;;;4.70;1.92;;;12.00;99.90;;;;;;5094087;28;20047;-52
2023/03/13 11:51:31;;;;;;;10.00;2.53;;;12.10;99.90;;;;;;5118661;27;20577;-52
2023/03/13 11:54:18;;;;;;;4.97;2.60;;;12.00;99.90;;;;;;5116944;27;20045;-52
2023/03/13 11:56:56;;;;;;;7.95;4.20;;;11.90;99.90;;;;;;5114313;28;20416;-50
2023/03/13 11:59:34;;;;;;;8.52;4.18;;;11.90;99.90;;;;;;5125662;27;20052;-52
2023/03/13 12:02:24;;;;;;;8.75;4.50;;;12.10;99.90;;;;;;5134831;27;20081;-52
2023/03/13 12:04:57;;;;;;;7.80;3.55;;;12.00;99.90;;;;;;5124722;27;20114;-52
2023/03/13 12:07:30;;;;;;;8.68;4.13;;;11.90;99.90;;;;;;5134658;27;20046;-52
2023/03/13 12:10:02;;;;;;;6.65;2.80;;;12.10;99.90;;;;;;5133689;27;20081;-51
2023/03/13 12:12:37;;;;;;;7.13;3.30;;;12.20;99.90;;;;;;5124175;27;20097;-51
2023/03/13 12:15:21;;;;;;;7.65;3.10;;;12.40;99.90;;;;;;5130359;27;20035;-50
2023/03/13 12:17:55;;;;;;;6.07;2.50;;;12.30;99.90;;;;;;5133814;27;20039;-50
2023/03/13 12:20:28;;;;;;;3.95;2.63;;;12.40;99.90;;;;;;5134097;27;20464;-50
2023/03/13 12:22:57;;;;;;;6.57;2.78;;;12.40;99.90;;;;;;5124624;27;20095;-50
2023/03/13 12:25:45;;;;;;;3.83;2.40;;;12.60;99.90;;;;;;5121583;27;20104;-51
2023/03/13 12:28:28;;;;;;;6.43;2.72;;;12.70;99.90;;;;;;5102627;28;20146;-51
2023/03/13 12:31:18;;;;;;;5.32;2.40;;;12.70;99.90;;;;;;5112487;27;20462;-54
2023/03/13 12:34:11;;;;;;;4.43;2.60;;;12.90;99.90;;;;;;5126683;27;20046;-51
2023/03/13 12:36:45;;;;;;;7.03;2.50;;;13.00;99.90;;;;;;5108162;28;20089;-52
2023/03/13 12:39:48;;;;;;;8.07;2.97;;;12.80;99.90;;;;;;5129851;27;20067;-53
2023/03/13 12:42:43;;;;;;;4.25;2.50;;;12.80;99.90;;;;;;5112630;28;20093;-51
2023/03/13 12:45:17;;;;;;;7.18;2.90;;;13.20;99.90;;;;;;5111683;28;20070;-53
2023/03/13 12:48:34;;;;;;;5.93;2.45;;;13.40;99.90;;;;;;5129440;27;20506;-55
2023/03/13 12:51:28;;;;;;;3.42;2.30;;;13.40;99.90;;;;;;5047052;28;20087;-55
2023/03/13 12:54:10;;;;;;;6.25;2.30;;;13.50;99.90;;;;;;5100107;28;20070;-53
2023/03/13 12:57:02;;;;;;;2.33;1.98;;;13.70;99.90;;;;;;5134069;27;20482;-52
2023/03/13 12:59:39;;;;;;;4.00;2.47;;;13.70;99.90;;;;;;5133405;27;20498;-54
2023/03/13 13:02:19;;;;;;;4.07;2.22;;;13.70;99.90;;;;;;5132945;27;20075;-50
2023/03/13 13:04:48;;;;;;;11.27;2.63;;;13.60;99.90;;;;;;5128994;27;20438;-51
2023/03/13 13:07:25;;;;;;;3.50;2.20;;;13.50;99.90;;;;;;5133672;27;20399;-53
2023/03/13 13:10:01;;;;;;;2.63;2.28;;;13.70;99.90;;;;;;5114433;27;20119;-51
2023/03/13 13:12:29;;;;;;;4.45;2.88;;;13.80;99.90;;;;;;5112398;28;20039;-53
2023/03/13 13:15:02;;;;;;;6.18;2.25;;;14.10;99.90;;;;;;5099330;27;20469;-50
2023/03/13 13:17:32;;;;;;;4.88;2.05;;;14.30;99.90;;;;;;5119940;27;20044;-52
2023/03/13 13:20:29;;;;;;;3.60;1.80;;;14.50;99.90;;;;;;5121009;27;20039;-51
2023/03/13 13:23:14;;;;;;;4.50;1.98;;;14.60;99.90;;;;;;5109454;28;20466;-52